createdAt,value
2023-03-30T00:01:06.100Z,9.90
2023-03-30T00:03:34.583Z,9.90
2023-03-30T00:06:06.051Z,9.90
2023-03-30T00:08:34.388Z,9.90
2023-03-30T00:11:06.494Z,9.90
2023-03-30T00:13:35.980Z,9.90
2023-03-30T00:16:06.225Z,9.90
2023-03-30T00:18:35.188Z,9.90
2023-03-30T00:21:03.929Z,9.90
2023-03-30T00:23:32.496Z,9.90
2023-03-30T00:26:00.715Z,9.90
2023-03-30T00:28:30.830Z,9.90
2023-03-30T00:30:59.417Z,9.90
2023-03-30T00:33:43.945Z,9.90
2023-03-30T00:36:14.360Z,9.90
2023-03-30T00:38:42.345Z,9.90
2023-03-30T00:41:10.145Z,9.90
2023-03-30T00:43:58.307Z,9.90
2023-03-30T00:46:26.196Z,9.90
2023-03-30T00:48:57.670Z,9.90
2023-03-30T00:51:27.103Z,9.90
2023-03-30T00:54:00.664Z,10.00
2023-03-30T00:56:31.768Z,9.90
2023-03-30T00:59:01.725Z,9.90
2023-03-30T01:01:31.011Z,9.90
2023-03-30T01:04:02.150Z,9.90
2023-03-30T01:06:31.641Z,9.90
2023-03-30T01:08:59.784Z,9.90
2023-03-30T01:11:28.349Z,9.90
2023-03-30T01:14:02.134Z,9.90
2023-03-30T01:16:36.331Z,9.90
2023-03-30T01:19:20.711Z,9.90
2023-03-30T01:22:24.987Z,9.90
2023-03-30T01:25:37.009Z,9.90
2023-03-30T01:28:20.789Z,9.90
2023-03-30T01:31:39.351Z,9.90
2023-03-30T01:34:48.140Z,9.90
2023-03-30T01:37:40.260Z,9.90
2023-03-30T01:40:14.398Z,9.90
2023-03-30T01:42:52.536Z,9.90
2023-03-30T01:45:28.913Z,9.90
2023-03-30T01:48:02.351Z,9.90
2023-03-30T01:50:36.803Z,9.90
2023-03-30T01:53:12.143Z,9.90
2023-03-30T01:55:47.440Z,9.90
2023-03-30T01:58:21.579Z,9.90
2023-03-30T02:00:51.571Z,9.90
2023-03-30T02:03:23.831Z,9.90
2023-03-30T02:05:54.544Z,9.90
2023-03-30T02:08:25.962Z,9.90
2023-03-30T02:10:58.259Z,9.80
2023-03-30T02:13:28.543Z,9.80
2023-03-30T02:16:00.868Z,9.80
2023-03-30T02:18:28.812Z,9.80
2023-03-30T02:20:58.830Z,9.80
2023-03-30T02:23:31.952Z,9.80
2023-03-30T02:26:01.429Z,9.80
2023-03-30T02:28:29.476Z,9.80
2023-03-30T02:30:57.456Z,9.80
2023-03-30T02:33:30.950Z,9.80
2023-03-30T02:36:16.420Z,9.80
2023-03-30T02:39:14.630Z,9.80
2023-03-30T02:42:18.584Z,9.80
2023-03-30T02:44:54.413Z,9.80
2023-03-30T02:47:32.127Z,9.80
2023-03-30T02:50:06.257Z,9.80
2023-03-30T02:52:45.643Z,9.80
2023-03-30T02:55:19.701Z,9.80
2023-03-30T02:58:02.527Z,9.80
2023-03-30T03:00:38.891Z,9.80
2023-03-30T03:03:13.143Z,9.80
2023-03-30T03:05:42.929Z,9.80
2023-03-30T03:08:13.762Z,9.80
2023-03-30T03:10:41.761Z,9.80
2023-03-30T03:13:11.955Z,9.80
2023-03-30T03:15:40.105Z,9.70
2023-03-30T03:18:08.558Z,9.70
2023-03-30T03:20:36.427Z,9.70
2023-03-30T03:23:04.317Z,9.60
2023-03-30T03:25:32.247Z,9.60
2023-03-30T03:27:59.974Z,9.50
2023-03-30T03:30:29.186Z,9.50
2023-03-30T03:32:57.494Z,9.40
2023-03-30T03:35:25.321Z,9.40
2023-03-30T03:37:53.026Z,9.40
2023-03-30T03:40:21.078Z,9.40
2023-03-30T03:42:48.800Z,9.50
2023-03-30T03:45:16.809Z,9.50
2023-03-30T03:47:46.223Z,9.50
2023-03-30T03:50:14.355Z,9.50
2023-03-30T03:52:42.386Z,9.50
2023-03-30T03:55:10.681Z,9.60
2023-03-30T03:57:38.623Z,9.60
2023-03-30T04:00:15.506Z,9.60
2023-03-30T04:02:45.425Z,9.60
2023-03-30T04:05:13.451Z,9.70
2023-03-30T04:07:41.518Z,9.70
2023-03-30T04:10:10.004Z,9.70
2023-03-30T04:12:38.776Z,9.70
2023-03-30T04:15:08.538Z,9.70
2023-03-30T04:17:37.116Z,9.70
2023-03-30T04:20:11.572Z,9.80
2023-03-30T04:22:42.202Z,9.80
2023-03-30T04:25:14.940Z,9.80
2023-03-30T04:27:43.845Z,9.80
2023-03-30T04:30:13.095Z,9.80
2023-03-30T04:32:41.355Z,9.80
2023-03-30T04:35:11.166Z,9.80
2023-03-30T04:37:42.117Z,9.80
2023-03-30T04:40:10.977Z,9.80
2023-03-30T04:42:38.800Z,9.80
2023-03-30T04:45:08.077Z,9.80
2023-03-30T04:47:36.426Z,9.80
2023-03-30T04:50:04.630Z,9.90
2023-03-30T04:52:33.839Z,9.90
2023-03-30T04:55:06.226Z,9.90
2023-03-30T04:57:34.081Z,9.90
2023-03-30T05:00:01.947Z,10.00
2023-03-30T05:02:29.916Z,10.00
2023-03-30T05:04:57.935Z,10.00
2023-03-30T05:07:26.241Z,10.10
2023-03-30T05:09:56.029Z,10.10
2023-03-30T05:12:23.912Z,10.20
2023-03-30T05:14:52.011Z,10.20
2023-03-30T05:17:19.780Z,10.30
2023-03-30T05:19:47.802Z,10.30
2023-03-30T05:22:16.354Z,10.40
2023-03-30T05:24:44.269Z,10.40
2023-03-30T05:27:14.370Z,10.50
2023-03-30T05:29:42.489Z,10.50
2023-03-30T05:32:10.396Z,10.50
2023-03-30T05:34:38.152Z,10.60
2023-03-30T05:37:06.236Z,10.60
2023-03-30T05:39:34.009Z,10.60
2023-03-30T05:42:02.526Z,10.70
2023-03-30T05:44:31.638Z,10.60
2023-03-30T05:46:59.392Z,10.70
2023-03-30T05:49:27.363Z,10.60
2023-03-30T05:51:55.759Z,10.70
2023-03-30T05:54:23.688Z,10.70
2023-03-30T05:56:52.501Z,10.70
2023-03-30T05:59:21.292Z,10.70
2023-03-30T06:01:50.530Z,10.70
2023-03-30T06:04:19.196Z,10.70
2023-03-30T06:06:47.298Z,10.70
2023-03-30T06:09:15.331Z,10.70
2023-03-30T06:11:43.126Z,10.70
2023-03-30T06:14:11.173Z,10.70
2023-03-30T06:16:39.161Z,10.70
2023-03-30T06:19:08.652Z,10.70
2023-03-30T06:21:36.934Z,10.70
2023-03-30T06:24:04.961Z,10.80
2023-03-30T06:26:32.719Z,10.80
2023-03-30T06:29:01.205Z,10.80
2023-03-30T06:31:30.154Z,10.80
2023-03-30T06:33:57.997Z,10.90
2023-03-30T06:36:44.798Z,10.90
2023-03-30T06:39:13.725Z,11.00
2023-03-30T06:41:41.803Z,11.00
2023-03-30T06:44:14.863Z,11.00
2023-03-30T06:46:42.885Z,11.10
2023-03-30T06:49:12.898Z,11.10
2023-03-30T06:51:42.138Z,11.10
2023-03-30T06:54:09.994Z,11.20
2023-03-30T06:56:37.773Z,11.20
2023-03-30T06:59:07.024Z,11.30
2023-03-30T07:01:35.015Z,11.40
2023-03-30T07:04:02.884Z,11.50
2023-03-30T07:06:30.791Z,11.50
2023-03-30T07:09:00.183Z,11.60
2023-03-30T07:11:27.985Z,11.70
2023-03-30T07:13:58.328Z,11.80
2023-03-30T07:16:26.446Z,11.80
2023-03-30T07:18:54.250Z,11.90
2023-03-30T07:21:22.093Z,11.90
2023-03-30T07:23:50.933Z,12.00
2023-03-30T07:26:22.374Z,12.00
2023-03-30T07:28:50.250Z,12.00
2023-03-30T07:31:19.993Z,12.00
2023-03-30T07:33:47.996Z,12.00
2023-03-30T07:36:16.412Z,12.10
2023-03-30T07:38:44.588Z,12.10
2023-03-30T07:41:14.472Z,12.10
2023-03-30T07:43:44.063Z,12.10
2023-03-30T07:46:13.064Z,12.10
2023-03-30T07:48:41.149Z,12.10
2023-03-30T07:51:10.416Z,12.10
2023-03-30T07:53:38.727Z,12.10
2023-03-30T07:56:07.402Z,12.10
2023-03-30T07:58:35.640Z,12.10
2023-03-30T08:01:05.307Z,12.20
2023-03-30T08:03:33.459Z,12.20
2023-03-30T08:06:04.430Z,12.40
2023-03-30T08:08:33.198Z,12.50
2023-03-30T08:11:02.970Z,12.50
2023-03-30T08:13:32.753Z,12.50
2023-03-30T08:16:00.618Z,12.50
2023-03-30T08:18:30.924Z,12.50
2023-03-30T08:20:58.727Z,12.50
2023-03-30T08:23:27.010Z,12.50
2023-03-30T08:25:57.815Z,12.50
2023-03-30T08:28:26.371Z,12.60
2023-03-30T08:30:54.618Z,12.70
2023-03-30T08:33:23.332Z,12.70
2023-03-30T08:35:52.794Z,12.60
2023-03-30T08:38:20.676Z,12.50
2023-03-30T08:40:50.165Z,12.50
2023-03-30T08:43:40.384Z,12.60
2023-03-30T08:46:13.534Z,12.70
2023-03-30T08:48:42.912Z,12.80
2023-03-30T08:51:22.135Z,13.00
2023-03-30T08:53:53.683Z,13.10
2023-03-30T08:56:24.552Z,13.20
2023-03-30T08:58:59.740Z,13.30
2023-03-30T09:01:34.894Z,13.30
2023-03-30T09:04:17.513Z,13.40
2023-03-30T09:06:50.678Z,13.40
2023-03-30T09:09:28.941Z,13.50
2023-03-30T09:12:03.640Z,13.50
2023-03-30T09:14:38.578Z,13.60
2023-03-30T09:17:12.357Z,13.70
2023-03-30T09:19:50.238Z,13.70
2023-03-30T09:22:21.954Z,13.70
2023-03-30T09:24:51.483Z,13.80
2023-03-30T09:27:25.219Z,13.80
2023-03-30T09:29:55.877Z,13.90
2023-03-30T09:32:32.656Z,13.90
2023-03-30T09:35:03.527Z,14.00
2023-03-30T09:37:33.021Z,14.10
2023-03-30T09:40:10.620Z,14.10
2023-03-30T09:42:48.813Z,14.20
2023-03-30T09:45:21.330Z,14.30
2023-03-30T09:47:52.894Z,14.40
2023-03-30T09:50:24.931Z,14.40
2023-03-30T09:53:00.094Z,14.30
2023-03-30T09:55:31.521Z,14.30
2023-03-30T09:58:13.616Z,14.30
2023-03-30T10:00:41.743Z,14.20
2023-03-30T10:03:19.793Z,14.20
2023-03-30T10:06:01.223Z,14.20
2023-03-30T10:08:30.996Z,14.20
2023-03-30T10:11:01.384Z,14.30
2023-03-30T10:13:33.293Z,14.40
2023-03-30T10:16:07.107Z,14.40
2023-03-30T10:18:40.771Z,14.40
2023-03-30T10:21:18.295Z,14.50
2023-03-30T10:23:59.778Z,14.60
2023-03-30T10:26:31.924Z,14.70
2023-03-30T10:29:04.197Z,14.80
2023-03-30T10:31:34.992Z,14.90
2023-03-30T10:34:05.059Z,15.00
2023-03-30T10:36:35.751Z,15.20
2023-03-30T10:39:12.287Z,15.40
2023-03-30T10:41:41.983Z,15.50
2023-03-30T10:44:22.527Z,15.60
2023-03-30T10:46:53.191Z,15.60
2023-03-30T10:49:33.360Z,15.60
2023-03-30T10:52:09.884Z,15.60
2023-03-30T10:54:44.878Z,15.60
2023-03-30T10:57:15.780Z,15.60
2023-03-30T11:00:06.665Z,15.60
2023-03-30T11:02:47.666Z,15.50
2023-03-30T11:05:18.429Z,15.50
2023-03-30T11:07:52.518Z,15.40
2023-03-30T11:10:29.140Z,15.30
2023-03-30T11:13:01.814Z,15.20
2023-03-30T11:15:34.494Z,15.20
2023-03-30T11:18:09.368Z,15.20
2023-03-30T11:20:42.354Z,15.10
2023-03-30T11:23:19.146Z,15.10
2023-03-30T11:25:57.546Z,15.10
2023-03-30T11:28:42.037Z,15.10
2023-03-30T11:31:23.035Z,15.20
2023-03-30T11:33:58.276Z,15.40
2023-03-30T11:36:33.258Z,15.60
2023-03-30T11:39:04.885Z,15.70
2023-03-30T11:41:39.572Z,15.80
2023-03-30T11:44:10.546Z,15.80
2023-03-30T11:46:44.844Z,15.80
2023-03-30T11:49:37.895Z,15.80
2023-03-30T11:52:16.373Z,15.90
2023-03-30T11:55:03.676Z,15.90
2023-03-30T11:57:40.970Z,15.90
2023-03-30T12:00:26.436Z,15.90
2023-03-30T12:03:02.744Z,16.00
2023-03-30T12:05:36.143Z,16.10
2023-03-30T12:08:13.792Z,16.20
2023-03-30T12:10:43.679Z,16.20
2023-03-30T12:13:15.838Z,16.20
2023-03-30T12:15:49.982Z,16.10
2023-03-30T12:18:30.021Z,15.90
2023-03-30T12:21:06.886Z,15.70
2023-03-30T12:23:42.274Z,15.60
2023-03-30T12:26:19.862Z,15.60
2023-03-30T12:29:32.653Z,15.60
2023-03-30T12:32:05.139Z,15.60
2023-03-30T12:34:35.137Z,15.50
2023-03-30T12:37:06.983Z,15.40
2023-03-30T12:39:44.704Z,15.20
2023-03-30T12:42:27.188Z,15.20
2023-03-30T12:45:22.119Z,15.20
2023-03-30T12:48:03.022Z,15.30
2023-03-30T12:50:38.780Z,15.40
2023-03-30T12:53:26.019Z,15.40
2023-03-30T12:56:01.035Z,15.30
2023-03-30T12:59:01.144Z,15.20
2023-03-30T13:02:00.117Z,15.10
2023-03-30T13:04:30.435Z,15.10
2023-03-30T13:07:00.850Z,15.10
2023-03-30T13:09:51.611Z,15.10
2023-03-30T13:12:33.451Z,15.10
2023-03-30T13:15:04.495Z,15.10
2023-03-30T13:17:58.042Z,15.10
2023-03-30T13:20:31.214Z,15.10
2023-03-30T13:23:23.683Z,15.00
2023-03-30T13:26:03.875Z,14.90
2023-03-30T13:28:38.262Z,14.90
2023-03-30T13:31:16.531Z,14.70
2023-03-30T13:33:50.910Z,14.60
2023-03-30T13:36:23.543Z,14.60
2023-03-30T13:39:04.933Z,14.50
2023-03-30T13:41:44.477Z,14.50
2023-03-30T13:44:34.486Z,14.50
2023-03-30T13:47:18.186Z,14.50
2023-03-30T13:49:55.996Z,14.70
2023-03-30T13:52:31.339Z,14.80
2023-03-30T13:55:00.240Z,14.90
2023-03-30T13:57:35.559Z,15.00
2023-03-30T14:00:09.162Z,15.10
2023-03-30T14:02:41.740Z,15.20
2023-03-30T14:05:20.475Z,15.40
2023-03-30T14:07:49.120Z,15.50
2023-03-30T14:10:19.587Z,15.50
2023-03-30T14:12:51.921Z,15.60
2023-03-30T14:15:23.554Z,15.60
2023-03-30T14:17:54.436Z,15.50
2023-03-30T14:20:47.998Z,15.40
2023-03-30T14:23:19.491Z,15.40
2023-03-30T14:25:47.457Z,15.30
2023-03-30T14:28:17.285Z,15.30
2023-03-30T14:30:53.241Z,15.30
2023-03-30T14:33:21.532Z,15.30
2023-03-30T14:35:53.374Z,15.30
2023-03-30T14:38:24.542Z,15.30
2023-03-30T14:40:55.441Z,15.30
2023-03-30T14:43:25.895Z,15.30
2023-03-30T14:45:54.881Z,15.20
2023-03-30T14:48:41.003Z,15.10
2023-03-30T14:51:24.538Z,15.10
2023-03-30T14:53:54.200Z,15.10
2023-03-30T14:56:23.461Z,15.00
2023-03-30T14:58:53.154Z,15.10
2023-03-30T15:01:30.863Z,15.10
2023-03-30T15:04:00.994Z,15.20
2023-03-30T15:06:31.514Z,15.20
2023-03-30T15:09:02.486Z,15.20
2023-03-30T15:11:32.404Z,15.20
2023-03-30T15:14:04.788Z,15.20
2023-03-30T15:16:36.289Z,15.20
2023-03-30T15:19:07.435Z,15.30
2023-03-30T15:21:38.651Z,15.20
2023-03-30T15:24:08.749Z,15.20
2023-03-30T15:26:41.805Z,15.20
2023-03-30T15:29:11.607Z,15.30
2023-03-30T15:31:39.491Z,15.30
2023-03-30T15:34:14.870Z,15.40
2023-03-30T15:36:45.692Z,15.40
2023-03-30T15:39:22.244Z,15.30
2023-03-30T15:42:00.821Z,15.30
2023-03-30T15:44:29.630Z,15.20
2023-03-30T15:46:59.874Z,15.20
2023-03-30T15:49:36.027Z,15.20
2023-03-30T15:52:13.725Z,15.10
2023-03-30T15:54:45.579Z,15.10
2023-03-30T15:57:21.536Z,15.00
2023-03-30T15:59:52.850Z,15.00
2023-03-30T16:02:23.281Z,14.90
2023-03-30T16:04:51.966Z,14.90
2023-03-30T16:07:24.550Z,14.90
2023-03-30T16:09:53.379Z,14.90
2023-03-30T16:12:25.814Z,14.90
2023-03-30T16:14:54.020Z,14.80
2023-03-30T16:17:22.499Z,14.70
2023-03-30T16:19:50.454Z,14.70
2023-03-30T16:22:19.466Z,14.60
2023-03-30T16:24:48.712Z,14.60
2023-03-30T16:27:16.533Z,14.50
2023-03-30T16:29:44.293Z,14.40
2023-03-30T16:32:12.366Z,14.40
2023-03-30T16:34:43.057Z,14.40
2023-03-30T16:37:11.941Z,14.40
2023-03-30T16:39:40.004Z,14.40
2023-03-30T16:42:12.287Z,14.30
2023-03-30T16:44:40.161Z,14.30
2023-03-30T16:47:08.163Z,14.30
2023-03-30T16:49:36.492Z,14.30
2023-03-30T16:52:04.577Z,14.30
2023-03-30T16:54:33.161Z,14.20
2023-03-30T16:57:02.120Z,14.20
2023-03-30T16:59:32.915Z,14.10
2023-03-30T17:02:00.983Z,14.10
2023-03-30T17:04:28.774Z,14.10
2023-03-30T17:06:56.700Z,14.10
2023-03-30T17:09:24.519Z,14.00
2023-03-30T17:11:54.383Z,14.00
2023-03-30T17:14:23.458Z,14.00
2023-03-30T17:16:52.757Z,13.90
2023-03-30T17:19:20.913Z,13.90
2023-03-30T17:21:48.818Z,13.90
2023-03-30T17:24:17.002Z,13.90
2023-03-30T17:26:45.615Z,13.80
2023-03-30T17:29:13.528Z,13.80
2023-03-30T17:31:45.571Z,13.80
2023-03-30T17:34:15.460Z,13.70
2023-03-30T17:36:43.619Z,13.70
2023-03-30T17:39:14.670Z,13.70
2023-03-30T17:41:42.501Z,13.60
2023-03-30T17:44:10.372Z,13.60
2023-03-30T17:46:38.431Z,13.60
2023-03-30T17:49:17.695Z,13.50
2023-03-30T17:51:46.226Z,13.50
2023-03-30T17:54:14.097Z,13.50
2023-03-30T17:56:41.906Z,13.40
2023-03-30T17:59:11.225Z,13.40
2023-03-30T18:01:40.085Z,13.30
2023-03-30T18:04:08.314Z,13.40
2023-03-30T18:06:39.018Z,13.30
2023-03-30T18:09:10.969Z,13.30
2023-03-30T18:11:39.054Z,13.30
2023-03-30T18:14:06.849Z,13.20
2023-03-30T18:16:35.975Z,13.20
2023-03-30T18:19:03.994Z,13.20
2023-03-30T18:21:31.882Z,13.20
2023-03-30T18:24:03.645Z,13.20
2023-03-30T18:26:33.421Z,13.20
2023-03-30T18:29:01.150Z,13.20
2023-03-30T18:31:40.417Z,13.10
2023-03-30T18:34:10.722Z,13.10
2023-03-30T18:36:38.786Z,13.10
2023-03-30T18:39:12.935Z,13.10
2023-03-30T18:41:43.102Z,13.00
2023-03-30T18:44:10.921Z,13.00
2023-03-30T18:46:38.783Z,12.90
2023-03-30T18:49:07.011Z,12.90
2023-03-30T18:51:34.835Z,12.80
2023-03-30T18:54:02.652Z,12.80
2023-03-30T18:56:33.504Z,12.80
2023-03-30T18:59:06.077Z,12.70
2023-03-30T19:01:34.270Z,12.70
2023-03-30T19:04:02.142Z,12.60
2023-03-30T19:06:31.041Z,12.60
2023-03-30T19:08:59.147Z,12.60
2023-03-30T19:11:28.308Z,12.60
2023-03-30T19:14:00.564Z,12.60
2023-03-30T19:16:28.564Z,12.60
2023-03-30T19:18:56.403Z,12.70
2023-03-30T19:21:24.590Z,12.60
2023-03-30T19:23:52.570Z,12.60
2023-03-30T19:26:20.872Z,12.60
2023-03-30T19:28:48.916Z,12.60
2023-03-30T19:31:18.524Z,12.60
2023-03-30T19:33:46.469Z,12.60
2023-03-30T19:36:14.234Z,12.50
2023-03-30T19:38:44.336Z,12.50
2023-03-30T19:41:12.269Z,12.50
2023-03-30T19:43:41.082Z,12.50
2023-03-30T19:46:09.341Z,12.50
2023-03-30T19:48:41.804Z,12.50
2023-03-30T19:51:09.694Z,12.50
2023-03-30T19:53:38.149Z,12.40
2023-03-30T19:56:11.452Z,12.40
2023-03-30T19:58:44.499Z,12.40
2023-03-30T20:01:12.794Z,12.40
2023-03-30T20:03:43.447Z,12.30
2023-03-30T20:06:12.865Z,12.30
2023-03-30T20:08:41.612Z,12.30
2023-03-30T20:11:11.022Z,12.30
2023-03-30T20:13:45.422Z,12.30
2023-03-30T20:16:20.660Z,12.30
2023-03-30T20:18:57.492Z,12.30
2023-03-30T20:21:27.456Z,12.30
2023-03-30T20:23:58.356Z,12.30
2023-03-30T20:26:26.380Z,12.20
2023-03-30T20:28:54.544Z,12.20
2023-03-30T20:31:23.933Z,12.20
2023-03-30T20:33:53.595Z,12.10
2023-03-30T20:36:22.554Z,12.10
2023-03-30T20:38:50.842Z,12.10
2023-03-30T20:41:21.876Z,12.10
2023-03-30T20:43:57.074Z,12.00
2023-03-30T20:46:35.400Z,12.00
2023-03-30T20:49:05.587Z,12.00
2023-03-30T20:51:33.659Z,12.00
2023-03-30T20:54:02.070Z,12.00
2023-03-30T20:56:31.780Z,12.00
2023-03-30T20:59:00.696Z,12.00
2023-03-30T21:01:34.122Z,12.00
2023-03-30T21:04:07.032Z,12.00
2023-03-30T21:06:38.420Z,12.00
2023-03-30T21:09:08.551Z,12.00
2023-03-30T21:11:42.071Z,12.00
2023-03-30T21:14:12.853Z,12.00
2023-03-30T21:16:42.042Z,12.00
2023-03-30T21:19:14.109Z,12.00
2023-03-30T21:21:44.318Z,12.00
2023-03-30T21:24:13.381Z,12.00
2023-03-30T21:26:41.626Z,12.00
2023-03-30T21:29:11.876Z,12.00
2023-03-30T21:31:40.413Z,12.00
2023-03-30T21:34:09.269Z,12.00
2023-03-30T21:36:39.231Z,12.00
2023-03-30T21:39:10.377Z,12.00
2023-03-30T21:41:38.384Z,12.00
2023-03-30T21:44:06.486Z,12.00
2023-03-30T21:46:34.825Z,12.00
2023-03-30T21:49:02.807Z,12.00
2023-03-30T21:51:32.419Z,12.00
2023-03-30T21:54:01.891Z,12.00
2023-03-30T21:56:32.438Z,12.00
2023-03-30T21:59:00.739Z,12.00
2023-03-30T22:01:29.272Z,12.00
2023-03-30T22:03:57.602Z,12.00
2023-03-30T22:06:26.205Z,12.00
2023-03-30T22:08:57.444Z,12.00
2023-03-30T22:11:27.376Z,12.00
2023-03-30T22:13:55.722Z,12.00
2023-03-30T22:16:28.681Z,12.00
2023-03-30T22:18:57.148Z,12.00
2023-03-30T22:21:29.353Z,12.00
2023-03-30T22:23:57.670Z,12.00
2023-03-30T22:26:28.312Z,12.00
2023-03-30T22:28:56.922Z,12.00
2023-03-30T22:31:26.751Z,12.00
2023-03-30T22:33:56.551Z,12.00
2023-03-30T22:36:26.487Z,12.00
2023-03-30T22:38:54.246Z,12.00
2023-03-30T22:41:24.845Z,12.00
2023-03-30T22:43:57.761Z,12.00
2023-03-30T22:46:27.482Z,12.00
2023-03-30T22:49:04.773Z,12.00
2023-03-30T22:51:33.970Z,12.00
2023-03-30T22:54:05.528Z,12.00
2023-03-30T22:56:35.612Z,12.00
2023-03-30T22:59:05.025Z,12.00
2023-03-30T23:01:49.228Z,12.00
2023-03-30T23:04:18.753Z,12.00
2023-03-30T23:06:48.808Z,12.10
2023-03-30T23:09:18.132Z,12.10
2023-03-30T23:11:46.775Z,12.00
2023-03-30T23:14:16.093Z,12.00
2023-03-30T23:16:43.909Z,12.00
2023-03-30T23:19:12.653Z,12.00
2023-03-30T23:21:41.011Z,12.00
2023-03-30T23:24:11.798Z,12.00
2023-03-30T23:26:39.878Z,12.00
2023-03-30T23:29:08.323Z,12.00
2023-03-30T23:31:38.102Z,11.90
2023-03-30T23:34:06.737Z,11.90
2023-03-30T23:36:35.148Z,11.90
2023-03-30T23:39:03.052Z,11.90
2023-03-30T23:41:36.246Z,11.90
2023-03-30T23:44:04.271Z,11.90
2023-03-30T23:46:33.081Z,11.80
2023-03-30T23:49:03.320Z,11.80
2023-03-30T23:51:31.586Z,11.80
2023-03-30T23:54:06.364Z,11.80
2023-03-30T23:56:35.442Z,11.80
2023-03-30T23:59:03.715Z,11.70
